Costa Magica — IBQQ — position and weather

sailwx.info

Track history (hours):
 
Tides and Currents Weather Stations Pressure Air Temp Water Temp Dewpoint Dewpoint Depression Visibility Wind Speed Wind Dir Waves Ship Positions

Costa Magica

Last reported at 2017-Aug-17 03:05 UTC. Time now 2017-Aug-17 03:36 UTC.
Position N 61°51' E 005°48'.

Type: Ship. MMSI: 247113300.

Date/timePositionNaut miles runAvg speedWind from/ knotsBaromVisibWave heightAir tempDewpointWater temp
2017-Aug-17 03:05N 61°51' E 005°48'114.0
2017-Aug-17 03:00N 61°52' E 005°46'713.8
2017-Aug-17 02:30N 61°55' E 005°32'713.8
2017-Aug-17 02:00N 61°54' E 005°18'713.4
2017-Aug-17 01:30N 61°55' E 005°04'713.5
2017-Aug-17 01:00N 61°59' E 004°52'713.0
2017-Aug-17 00:30N 62°03' E 004°41'611.0
2017-Aug-17 00:00N 62°08' E 004°37'2511.4
2017-Aug-16 21:48N 62°31' E 005°00'413.6
2017-Aug-16 21:30N 62°31' E 005°09'714.2
2017-Aug-16 21:00N 62°31' E 005°25'714.5
2017-Aug-16 20:30N 62°30' E 005°40'714.8
2017-Aug-16 20:00N 62°27' E 005°55'713.5
2017-Aug-16 19:30N 62°30' E 006°09'612.7
2017-Aug-16 19:00N 62°36' E 006°09'3 6.2
2017-Aug-16 18:30N 62°38' E 006°14'815.7
2017-Aug-16 18:00N 62°38' E 006°31'816.8
2017-Aug-16 17:30N 62°41' E 006°49'815.8
2017-Aug-16 17:00N 62°40' E 007°06'816.8
2017-Aug-16 16:30N 62°36' E 007°23'814.3
2017-Aug-16 15:58N 62°34' E 007°38'2 0.2
2017-Aug-16 05:53N 62°34' E 007°42'0 0.1
2017-Aug-16 05:23N 62°34' E 007°42'0 0.8
2017-Aug-16 04:55N 62°34' E 007°41'611.3
2017-Aug-16 04:22N 62°34' E 007°28'615.3
2017-Aug-16 04:00N 62°38' E 007°19'815.6
2017-Aug-16 03:30N 62°41' E 007°03'714.0
2017-Aug-16 03:00N 62°48' E 006°58'612.6
2017-Aug-16 02:30N 62°54' E 006°53'713.1
2017-Aug-16 02:00N 62°57' E 006°42'713.8
2017-Aug-16 01:30N 62°59' E 006°27'713.4
2017-Aug-16 01:00N 62°60' E 006°12'30 9.7
2017-Aug-15 21:55N 62°42' E 005°19'512.1
2017-Aug-15 21:30N 62°38' E 005°25'611.8
2017-Aug-15 21:00N 62°34' E 005°34'611.9
2017-Aug-15 20:30N 62°30' E 005°44'815.2
2017-Aug-15 20:00N 62°27' E 005°59'816.6
2017-Aug-15 19:30N 62°23' E 006°15'918.0
2017-Aug-15 19:00N 62°26' E 006°34'917.0
2017-Aug-15 18:30N 62°26' E 006°52'816.4
2017-Aug-15 18:00N 62°19' E 006°59'816.3
2017-Aug-15 17:30N 62°11' E 007°01'510.4
2017-Aug-15 17:00N 62°05' E 007°02'3 5.3
2017-Aug-15 16:30N 62°07' E 007°07'2 4.5
2017-Aug-15 15:58N 62°06' E 007°12'0 0.0
2017-Aug-15 15:28N 62°06' E 007°12'0 0.0
2017-Aug-15 14:58N 62°06' E 007°12'0 0.0
2017-Aug-15 14:22N 62°06' E 007°12'0 0.0
2017-Aug-15 13:58N 62°06' E 007°12'0 0.0
2017-Aug-15 13:28N 62°06' E 007°12'0 0.0
2017-Aug-15 12:58N 62°06' E 007°12'0 0.0
2017-Aug-15 12:28N 62°06' E 007°12'0 0.0
2017-Aug-15 11:58N 62°06' E 007°12'0 0.0
2017-Aug-15 11:28N 62°06' E 007°12'0 0.0
2017-Aug-15 10:58N 62°06' E 007°12'0 0.0
2017-Aug-15 10:28N 62°06' E 007°12'0 0.0
2017-Aug-15 09:58N 62°06' E 007°12'0 0.0
2017-Aug-15 09:28N 62°06' E 007°12'0 0.0
2017-Aug-15 08:58N 62°06' E 007°12'0 0.0
2017-Aug-15 08:28N 62°06' E 007°12'0 0.0
2017-Aug-15 08:00N 62°06' E 007°12'2 3.4
2017-Aug-15 07:30N 62°07' E 007°09'611.1
2017-Aug-15 07:00N 62°07' E 006°57'1 0.3
2017-Aug-15 04:48N 62°07' E 006°55'413.3
2017-Aug-15 04:30N 62°10' E 007°00'816.4
2017-Aug-15 04:00N 62°18' E 007°00'815.5
2017-Aug-15 03:30N 62°25' E 006°55'715.0
2017-Aug-15 03:00N 62°27' E 006°39'816.1
2017-Aug-15 02:29N 62°24' E 006°22'815.7
2017-Aug-15 02:00N 62°23' E 006°06'612.0
2017-Aug-15 01:30N 62°27' E 005°55'815.9
2017-Aug-15 01:00N 62°30' E 005°40'816.9
2017-Aug-15 00:30N 62°27' E 005°23'714.5
2017-Aug-15 00:00N 62°23' E 005°10'714.6
2017-Aug-14 23:30N 62°17' E 004°59'714.5
2017-Aug-14 23:00N 62°12' E 004°50'713.6
2017-Aug-14 22:30N 62°06' E 004°43'713.5
2017-Aug-14 22:00N 61°59' E 004°38'815.0
2017-Aug-14 21:30N 61°52' E 004°32'917.6
2017-Aug-14 20:59N 61°44' E 004°24'1717.4
2017-Aug-14 20:01N 61°27' E 004°19'018.0
2017-Aug-14 20:00N 61°27' E 004°19'917.1
2017-Aug-14 19:30N 61°19' E 004°19'917.8
2017-Aug-14 19:00N 61°10' E 004°18'917.9
2017-Aug-14 18:30N 61°01' E 004°19'917.7
2017-Aug-14 18:00N 60°52' E 004°25'816.5
2017-Aug-14 17:30N 60°46' E 004°36'714.2
2017-Aug-14 17:00N 60°43' E 004°48'816.1
2017-Aug-14 16:30N 60°35' E 004°54'917.1
2017-Aug-14 16:00N 60°27' E 005°01'713.3
2017-Aug-14 15:30N 60°23' E 005°12'4 1.6
2017-Aug-14 13:06N 60°24' E 005°19'0 0.0
2017-Aug-14 13:00N 60°24' E 005°19'0 0.0
2017-Aug-14 12:30N 60°24' E 005°19'0 0.0
2017-Aug-14 12:00N 60°24' E 005°19'0 0.0
2017-Aug-14 11:30N 60°24' E 005°19'0 0.0
2017-Aug-14 11:00N 60°24' E 005°19'0 0.0
2017-Aug-14 10:30N 60°24' E 005°19'0 0.0
2017-Aug-14 10:00N 60°24' E 005°19'0 0.0
2017-Aug-14 09:30N 60°24' E 005°19'0 0.0
2017-Aug-14 09:00N 60°24' E 005°19'0 0.0
2017-Aug-14 08:30N 60°24' E 005°19'0 0.0
2017-Aug-14 08:00N 60°24' E 005°19'0 0.0
2017-Aug-14 07:30N 60°24' E 005°19'0 0.0
2017-Aug-14 07:00N 60°24' E 005°19'0 0.0
2017-Aug-14 06:30N 60°24' E 005°19'0 0.0
2017-Aug-14 06:00N 60°24' E 005°19'0 0.0
2017-Aug-14 05:30N 60°24' E 005°19'1 2.9
2017-Aug-14 05:00N 60°24' E 005°16'5 9.9
2017-Aug-14 04:30N 60°24' E 005°06'714.8
2017-Aug-14 04:00N 60°31' E 004°58'816.5
2017-Aug-14 03:30N 60°38' E 004°52'714.8
2017-Aug-14 03:00N 60°44' E 004°43'612.0
2017-Aug-14 02:30N 60°41' E 004°32'815.3
2017-Aug-14 02:00N 60°34' E 004°26'10214.5
2017-Aug-13 18:59N 58°53' E 004°19'714.5
2017-Aug-13 18:30N 58°46' E 004°22'714.4
2017-Aug-13 18:00N 58°39' E 004°23'714.3
2017-Aug-13 17:31N 58°32' E 004°25'814.0
2017-Aug-13 16:58N 58°24' E 004°28'613.9
2017-Aug-13 16:30N 58°18' E 004°30'27515.8
2017-Aug-12 23:09N 53°44' E 004°56'217.5
2017-Aug-12 23:00N 53°41' E 004°54'917.4
2017-Aug-12 22:30N 53°34' E 004°47'917.5
2017-Aug-12 22:00N 53°26' E 004°41'917.9
2017-Aug-12 21:30N 53°17' E 004°36'918.0
2017-Aug-12 21:00N 53°09' E 004°30'918.0
2017-Aug-12 20:30N 53°02' E 004°22'917.8
2017-Aug-12 20:00N 52°54' E 004°15'917.7
2017-Aug-12 19:30N 52°46' E 004°08'816.5
2017-Aug-12 19:00N 52°38' E 004°14'917.1
2017-Aug-12 18:30N 52°32' E 004°23'611.6
2017-Aug-12 18:01N 52°28' E 004°31'4 7.1
2017-Aug-12 17:31N 52°28' E 004°36'1 1.2
2017-Aug-12 17:01N 52°28' E 004°37'3 6.2
2017-Aug-12 16:31N 52°27' E 004°42'4 7.8
2017-Aug-12 16:01N 52°25' E 004°48'4 7.4
2017-Aug-12 15:30N 52°24' E 004°53'1 2.4
2017-Aug-12 15:00N 52°23' E 004°55'0 0.0
2017-Aug-12 14:30N 52°23' E 004°55'0 0.0
2017-Aug-12 14:00N 52°23' E 004°55'0 0.0
2017-Aug-12 13:30N 52°23' E 004°55'0 0.0
2017-Aug-12 13:00N 52°23' E 004°55'0 0.0
2017-Aug-12 12:30N 52°23' E 004°55'0 0.0
2017-Aug-12 12:00N 52°23' E 004°55'0 0.0
2017-Aug-12 11:30N 52°23' E 004°55'0 0.0
2017-Aug-12 11:00N 52°23' E 004°55'0 0.0
2017-Aug-12 10:30N 52°23' E 004°55'0 0.0
2017-Aug-12 10:00N 52°23' E 004°55'0 0.0
2017-Aug-12 09:30N 52°23' E 004°55'0 0.0
2017-Aug-12 09:00N 52°23' E 004°55'0 0.0
2017-Aug-12 08:30N 52°23' E 004°55'0 0.0
2017-Aug-12 08:00N 52°23' E 004°55'0 0.0
2017-Aug-12 07:30N 52°23' E 004°55'0 0.0
2017-Aug-12 07:00N 52°23' E 004°55'0 0.0
2017-Aug-12 06:30N 52°23' E 004°55'0 0.0
2017-Aug-12 06:00N 52°23' E 004°55'0 0.0
2017-Aug-12 05:30N 52°23' E 004°55'0 1.0
2017-Aug-12 05:01N 52°23' E 004°56'1 2.6
2017-Aug-12 04:30N 52°23' E 004°54'3 6.3
2017-Aug-12 04:01N 52°25' E 004°49'4 7.8
2017-Aug-12 03:31N 52°26' E 004°43'4 7.8
2017-Aug-12 03:01N 52°28' E 004°37'1 1.8
2017-Aug-12 02:30N 52°28' E 004°36'4 7.6
2017-Aug-12 02:00N 52°28' E 004°30'611.3
2017-Aug-12 01:30N 52°29' E 004°21'917.3
2017-Aug-12 01:00N 52°32' E 004°07'1121.1
2017-Aug-12 00:30N 52°42' E 004°01'1121.3
2017-Aug-11 23:59N 52°52' E 003°59'1020.5
2017-Aug-11 23:29N 53°01' E 004°07'1021.0
2017-Aug-11 23:00N 53°08' E 004°19'1120.6
2017-Aug-11 22:28N 53°18' E 004°29'920.1
2017-Aug-11 22:00N 53°26' E 004°35'918.7
2017-Aug-11 21:31N 53°32' E 004°48'918.5
2017-Aug-11 21:00N 53°34' E 005°03'918.5
2017-Aug-11 20:30N 53°37' E 005°18'1418.9
2017-Aug-11 19:45N 53°42' E 005°41'6720.1
2017-Aug-11 16:23N 53°59' E 007°31'717.3
2017-Aug-11 16:00N 53°57' E 007°41'815.9
2017-Aug-11 15:30N 53°52' E 007°52'917.5
2017-Aug-11 15:00N 53°50' E 008°06'1019.3
2017-Aug-11 14:30N 53°43' E 008°18'1313.0
2017-Aug-11 13:30N 53°34' E 008°33'0 0.2
2017-Aug-11 13:00N 53°34' E 008°33'0 0.0
2017-Aug-11 12:29N 53°34' E 008°33'0 0.0
2017-Aug-11 12:00N 53°34' E 008°33'0 0.0
2017-Aug-11 11:30N 53°34' E 008°33'0 0.0
2017-Aug-11 10:59N 53°34' E 008°33'0 0.0
2017-Aug-11 10:29N 53°34' E 008°33'0 0.0
2017-Aug-11 09:59N 53°34' E 008°33'0 0.0
2017-Aug-11 09:29N 53°34' E 008°33'0 0.0
2017-Aug-11 08:59N 53°34' E 008°33'0 0.0
2017-Aug-11 08:29N 53°34' E 008°33'0 0.0
2017-Aug-11 07:59N 53°34' E 008°33'0 0.0
2017-Aug-11 07:29N 53°34' E 008°33'0 0.0
2017-Aug-11 07:00N 53°34' E 008°33'0 0.0
2017-Aug-11 06:29N 53°34' E 008°33'0 0.0
2017-Aug-11 06:00N 53°34' E 008°33'0 0.3
2017-Aug-11 05:30N 53°34' E 008°33'3 6.1
2017-Aug-11 05:01N 53°36' E 008°30'612.7
2017-Aug-11 04:30N 53°40' E 008°22'713.1
2017-Aug-11 04:00N 53°44' E 008°13'713.4
2017-Aug-11 03:30N 53°49' E 008°06'714.4
2017-Aug-11 03:00N 53°52' E 007°54'610.9
2017-Aug-11 02:30N 53°53' E 007°45'610.2
2017-Aug-11 01:58N 53°57' E 007°39'3210.7
2017-Aug-10 22:58N 54°27' E 007°18'1413.3
2017-Aug-10 21:56N 54°38' E 007°04'613.8
2017-Aug-10 21:30N 54°42' E 006°57'713.6
2017-Aug-10 21:00N 54°48' E 006°50'713.3
2017-Aug-10 20:30N 54°53' E 006°44'612.9
2017-Aug-10 20:00N 54°59' E 006°38'613.0
2017-Aug-10 19:30N 55°05' E 006°34'612.5
2017-Aug-10 19:00N 55°10' E 006°30'612.3
2017-Aug-10 18:30N 55°16' E 006°27'612.3
2017-Aug-10 18:00N 55°22' E 006°25'612.5
2017-Aug-10 17:29N 55°29' E 006°22'612.5
2017-Aug-10 16:59N 55°35' E 006°18'612.4
2017-Aug-10 16:30N 55°40' E 006°15'612.4
2017-Aug-10 16:00N 55°46' E 006°12'612.5
2017-Aug-10 15:29N 55°52' E 006°08'15513.9
2017-Aug-10 04:19N 58°19' E 004°32'513.5
2017-Aug-10 03:56N 58°24' E 004°28'613.8
2017-Aug-10 03:30N 58°29' E 004°24'714.2
2017-Aug-10 03:00N 58°36' E 004°19'714.9
2017-Aug-10 02:30N 58°43' E 004°14'11314.0
2017-Aug-09 18:29N 60°35' E 004°22'713.9
2017-Aug-09 18:00N 60°41' E 004°29'612.2
2017-Aug-09 17:30N 60°45' E 004°38'612.4
2017-Aug-09 17:00N 60°41' E 004°49'816.8
2017-Aug-09 16:30N 60°34' E 004°55'816.9
2017-Aug-09 16:00N 60°26' E 005°02'611.6
2017-Aug-09 15:30N 60°24' E 005°13'3 5.6
2017-Aug-09 14:59N 60°24' E 005°19'0 0.0
2017-Aug-09 14:29N 60°24' E 005°19'0 0.0
2017-Aug-09 13:59N 60°24' E 005°19'0 0.0
2017-Aug-09 13:29N 60°24' E 005°19'0 0.0
2017-Aug-09 12:59N 60°24' E 005°19'0 0.0
2017-Aug-09 12:29N 60°24' E 005°19'0 0.0
2017-Aug-09 11:59N 60°24' E 005°19'0 0.0
2017-Aug-09 11:29N 60°24' E 005°19'0 0.0
2017-Aug-09 10:59N 60°24' E 005°19'0 0.0
2017-Aug-09 10:29N 60°24' E 005°19'0 0.0
2017-Aug-09 09:59N 60°24' E 005°19'0 0.0
2017-Aug-09 09:29N 60°24' E 005°19'0 0.0
2017-Aug-09 08:59N 60°24' E 005°19'0 0.0
2017-Aug-09 08:29N 60°24' E 005°19'0 0.0
2017-Aug-09 07:59N 60°24' E 005°19'0 0.0
2017-Aug-09 07:29N 60°24' E 005°19'0 0.0
2017-Aug-09 06:59N 60°24' E 005°19'0 0.0
2017-Aug-09 06:29N 60°24' E 005°19'0 0.0
2017-Aug-09 05:59N 60°24' E 005°19'0 0.0
2017-Aug-09 05:29N 60°24' E 005°19'1 2.8
2017-Aug-09 05:00N 60°24' E 005°16'5 9.6
2017-Aug-09 04:30N 60°24' E 005°06'714.4
2017-Aug-09 04:00N 60°30' E 004°58'816.4
2017-Aug-09 03:30N 60°38' E 004°52'713.5
2017-Aug-09 03:00N 60°44' E 004°45'612.9
2017-Aug-09 02:30N 60°46' E 004°33'612.7
2017-Aug-09 02:00N 60°49' E 004°21'5511.4
2017-Aug-08 21:13N 61°44' E 004°23'313.4
2017-Aug-08 21:00N 61°46' E 004°26'713.2
2017-Aug-08 20:30N 61°52' E 004°34'612.5
2017-Aug-08 20:00N 61°57' E 004°42'610.9
2017-Aug-08 19:30N 61°59' E 004°53'815.1
2017-Aug-08 19:00N 61°55' E 005°07'714.4
2017-Aug-08 18:30N 61°55' E 005°22'816.1
2017-Aug-08 18:00N 61°54' E 005°39'6 0.4
2017-Aug-08 02:17N 61°51' E 005°49'414.0
2017-Aug-08 02:00N 61°53' E 005°42'714.2
2017-Aug-08 01:30N 61°55' E 005°28'713.1
2017-Aug-08 01:00N 61°54' E 005°14'713.1
2017-Aug-08 00:30N 61°56' E 005°01'714.2
2017-Aug-08 00:00N 62°00' E 004°49'612.6
2017-Aug-07 23:30N 62°06' E 004°42'612.7
2017-Aug-07 23:00N 62°12' E 004°46'714.4
2017-Aug-07 22:30N 62°18' E 004°51'714.4
2017-Aug-07 22:00N 62°23' E 005°03'714.1
2017-Aug-07 21:30N 62°28' E 005°15'713.2
2017-Aug-07 21:00N 62°31' E 005°28'714.1
2017-Aug-07 20:30N 62°30' E 005°43'714.4
2017-Aug-07 20:00N 62°27' E 005°57'612.2
2017-Aug-07 19:30N 62°30' E 006°09'613.0
2017-Aug-07 19:01N 62°37' E 006°08'5 9.4
2017-Aug-07 18:30N 62°37' E 006°18'816.9
2017-Aug-07 18:00N 62°39' E 006°36'917.3
2017-Aug-07 17:30N 62°41' E 006°54'917.1
2017-Aug-07 17:00N 62°39' E 007°12'1215.7
2017-Aug-07 16:13N 62°33' E 007°36'3 0.9
2017-Aug-07 13:06N 62°34' E 007°42'0 0.0
2017-Aug-07 13:00N 62°34' E 007°42'0 0.0
2017-Aug-07 12:21N 62°34' E 007°42'0 0.0
2017-Aug-07 10:00N 62°34' E 007°42'0 0.0
2017-Aug-07 08:24N 62°34' E 007°42'0 0.0
2017-Aug-07 07:30N 62°34' E 007°42'0 0.0
2017-Aug-07 07:00N 62°34' E 007°42'0 0.0
2017-Aug-07 06:24N 62°34' E 007°42'0 0.0
2017-Aug-07 05:54N 62°34' E 007°42'0 0.0
2017-Aug-07 05:29N 62°34' E 007°42'5 8.3
2017-Aug-07 04:56N 62°33' E 007°32'613.7
2017-Aug-07 04:30N 62°37' E 007°22'714.5
2017-Aug-07 04:00N 62°40' E 007°08'713.7
2017-Aug-07 03:30N 62°45' E 006°57'  
Track history (hours):
 
Tides and Currents Weather Stations Pressure Air Temp Water Temp Dewpoint Dewpoint Depression Visibility Wind Speed Wind Dir Waves Ship Positions

Costa Magica

Last reported at 2017-Aug-17 03:05 UTC. Time now 2017-Aug-17 03:36 UTC.
Position N 61°51' E 005°48'.

Type: Ship. MMSI: 247113300.

Date/timePositionNaut miles runAvg speedWind from/ knotsBaromVisibWave heightAir tempDewpointWater temp
2017-Aug-17 03:05N 61°51' E 005°48'114.0
2017-Aug-17 03:00N 61°52' E 005°46'713.8
2017-Aug-17 02:30N 61°55' E 005°32'713.8
2017-Aug-17 02:00N 61°54' E 005°18'713.4
2017-Aug-17 01:30N 61°55' E 005°04'713.5
2017-Aug-17 01:00N 61°59' E 004°52'713.0
2017-Aug-17 00:30N 62°03' E 004°41'611.0
2017-Aug-17 00:00N 62°08' E 004°37'2511.4
2017-Aug-16 21:48N 62°31' E 005°00'413.6
2017-Aug-16 21:30N 62°31' E 005°09'714.2
2017-Aug-16 21:00N 62°31' E 005°25'714.5
2017-Aug-16 20:30N 62°30' E 005°40'714.8
2017-Aug-16 20:00N 62°27' E 005°55'713.5
2017-Aug-16 19:30N 62°30' E 006°09'612.7
2017-Aug-16 19:00N 62°36' E 006°09'3 6.2
2017-Aug-16 18:30N 62°38' E 006°14'815.7
2017-Aug-16 18:00N 62°38' E 006°31'816.8
2017-Aug-16 17:30N 62°41' E 006°49'815.8
2017-Aug-16 17:00N 62°40' E 007°06'816.8
2017-Aug-16 16:30N 62°36' E 007°23'814.3
2017-Aug-16 15:58N 62°34' E 007°38'2 0.2
2017-Aug-16 05:53N 62°34' E 007°42'0 0.1
2017-Aug-16 05:23N 62°34' E 007°42'0 0.8
2017-Aug-16 04:55N 62°34' E 007°41'611.3
2017-Aug-16 04:22N 62°34' E 007°28'615.3
2017-Aug-16 04:00N 62°38' E 007°19'815.6
2017-Aug-16 03:30N 62°41' E 007°03'714.0
2017-Aug-16 03:00N 62°48' E 006°58'612.6
2017-Aug-16 02:30N 62°54' E 006°53'713.1
2017-Aug-16 02:00N 62°57' E 006°42'713.8
2017-Aug-16 01:30N 62°59' E 006°27'713.4
2017-Aug-16 01:00N 62°60' E 006°12'30 9.7
2017-Aug-15 21:55N 62°42' E 005°19'512.1
2017-Aug-15 21:30N 62°38' E 005°25'611.8
2017-Aug-15 21:00N 62°34' E 005°34'611.9
2017-Aug-15 20:30N 62°30' E 005°44'815.2
2017-Aug-15 20:00N 62°27' E 005°59'816.6
2017-Aug-15 19:30N 62°23' E 006°15'918.0
2017-Aug-15 19:00N 62°26' E 006°34'917.0
2017-Aug-15 18:30N 62°26' E 006°52'816.4
2017-Aug-15 18:00N 62°19' E 006°59'816.3
2017-Aug-15 17:30N 62°11' E 007°01'510.4
2017-Aug-15 17:00N 62°05' E 007°02'3 5.3
2017-Aug-15 16:30N 62°07' E 007°07'2 4.5
2017-Aug-15 15:58N 62°06' E 007°12'0 0.0
2017-Aug-15 15:28N 62°06' E 007°12'0 0.0
2017-Aug-15 14:58N 62°06' E 007°12'0 0.0
2017-Aug-15 14:22N 62°06' E 007°12'0 0.0
2017-Aug-15 13:58N 62°06' E 007°12'0 0.0
2017-Aug-15 13:28N 62°06' E 007°12'0 0.0
2017-Aug-15 12:58N 62°06' E 007°12'0 0.0
2017-Aug-15 12:28N 62°06' E 007°12'0 0.0
2017-Aug-15 11:58N 62°06' E 007°12'0 0.0
2017-Aug-15 11:28N 62°06' E 007°12'0 0.0
2017-Aug-15 10:58N 62°06' E 007°12'0 0.0
2017-Aug-15 10:28N 62°06' E 007°12'0 0.0
2017-Aug-15 09:58N 62°06' E 007°12'0 0.0
2017-Aug-15 09:28N 62°06' E 007°12'0 0.0
2017-Aug-15 08:58N 62°06' E 007°12'0 0.0
2017-Aug-15 08:28N 62°06' E 007°12'0 0.0
2017-Aug-15 08:00N 62°06' E 007°12'2 3.4
2017-Aug-15 07:30N 62°07' E 007°09'611.1
2017-Aug-15 07:00N 62°07' E 006°57'1 0.3
2017-Aug-15 04:48N 62°07' E 006°55'413.3
2017-Aug-15 04:30N 62°10' E 007°00'816.4
2017-Aug-15 04:00N 62°18' E 007°00'815.5
2017-Aug-15 03:30N 62°25' E 006°55'715.0
2017-Aug-15 03:00N 62°27' E 006°39'816.1
2017-Aug-15 02:29N 62°24' E 006°22'815.7
2017-Aug-15 02:00N 62°23' E 006°06'612.0
2017-Aug-15 01:30N 62°27' E 005°55'815.9
2017-Aug-15 01:00N 62°30' E 005°40'816.9
2017-Aug-15 00:30N 62°27' E 005°23'714.5
2017-Aug-15 00:00N 62°23' E 005°10'714.6
2017-Aug-14 23:30N 62°17' E 004°59'714.5
2017-Aug-14 23:00N 62°12' E 004°50'713.6
2017-Aug-14 22:30N 62°06' E 004°43'713.5
2017-Aug-14 22:00N 61°59' E 004°38'815.0
2017-Aug-14 21:30N 61°52' E 004°32'917.6
2017-Aug-14 20:59N 61°44' E 004°24'1717.4
2017-Aug-14 20:01N 61°27' E 004°19'018.0
2017-Aug-14 20:00N 61°27' E 004°19'917.1
2017-Aug-14 19:30N 61°19' E 004°19'917.8
2017-Aug-14 19:00N 61°10' E 004°18'917.9
2017-Aug-14 18:30N 61°01' E 004°19'917.7
2017-Aug-14 18:00N 60°52' E 004°25'816.5
2017-Aug-14 17:30N 60°46' E 004°36'714.2
2017-Aug-14 17:00N 60°43' E 004°48'816.1
2017-Aug-14 16:30N 60°35' E 004°54'917.1
2017-Aug-14 16:00N 60°27' E 005°01'713.3
2017-Aug-14 15:30N 60°23' E 005°12'4 1.6
2017-Aug-14 13:06N 60°24' E 005°19'0 0.0
2017-Aug-14 13:00N 60°24' E 005°19'0 0.0
2017-Aug-14 12:30N 60°24' E 005°19'0 0.0
2017-Aug-14 12:00N 60°24' E 005°19'0 0.0
2017-Aug-14 11:30N 60°24' E 005°19'0 0.0
2017-Aug-14 11:00N 60°24' E 005°19'0 0.0
2017-Aug-14 10:30N 60°24' E 005°19'0 0.0
2017-Aug-14 10:00N 60°24' E 005°19'0 0.0
2017-Aug-14 09:30N 60°24' E 005°19'0 0.0
2017-Aug-14 09:00N 60°24' E 005°19'0 0.0
2017-Aug-14 08:30N 60°24' E 005°19'0 0.0
2017-Aug-14 08:00N 60°24' E 005°19'0 0.0
2017-Aug-14 07:30N 60°24' E 005°19'0 0.0
2017-Aug-14 07:00N 60°24' E 005°19'0 0.0
2017-Aug-14 06:30N 60°24' E 005°19'0 0.0
2017-Aug-14 06:00N 60°24' E 005°19'0 0.0
2017-Aug-14 05:30N 60°24' E 005°19'1 2.9
2017-Aug-14 05:00N 60°24' E 005°16'5 9.9
2017-Aug-14 04:30N 60°24' E 005°06'714.8
2017-Aug-14 04:00N 60°31' E 004°58'816.5
2017-Aug-14 03:30N 60°38' E 004°52'714.8
2017-Aug-14 03:00N 60°44' E 004°43'612.0
2017-Aug-14 02:30N 60°41' E 004°32'815.3
2017-Aug-14 02:00N 60°34' E 004°26'10214.5
2017-Aug-13 18:59N 58°53' E 004°19'714.5
2017-Aug-13 18:30N 58°46' E 004°22'714.4
2017-Aug-13 18:00N 58°39' E 004°23'714.3
2017-Aug-13 17:31N 58°32' E 004°25'814.0
2017-Aug-13 16:58N 58°24' E 004°28'613.9
2017-Aug-13 16:30N 58°18' E 004°30'27515.8
2017-Aug-12 23:09N 53°44' E 004°56'217.5
2017-Aug-12 23:00N 53°41' E 004°54'917.4
2017-Aug-12 22:30N 53°34' E 004°47'917.5
2017-Aug-12 22:00N 53°26' E 004°41'917.9
2017-Aug-12 21:30N 53°17' E 004°36'918.0
2017-Aug-12 21:00N 53°09' E 004°30'918.0
2017-Aug-12 20:30N 53°02' E 004°22'917.8
2017-Aug-12 20:00N 52°54' E 004°15'917.7
2017-Aug-12 19:30N 52°46' E 004°08'816.5
2017-Aug-12 19:00N 52°38' E 004°14'917.1
2017-Aug-12 18:30N 52°32' E 004°23'611.6
2017-Aug-12 18:01N 52°28' E 004°31'4 7.1
2017-Aug-12 17:31N 52°28' E 004°36'1 1.2
2017-Aug-12 17:01N 52°28' E 004°37'3 6.2
2017-Aug-12 16:31N 52°27' E 004°42'4 7.8
2017-Aug-12 16:01N 52°25' E 004°48'4 7.4
2017-Aug-12 15:30N 52°24' E 004°53'1 2.4
2017-Aug-12 15:00N 52°23' E 004°55'0 0.0
2017-Aug-12 14:30N 52°23' E 004°55'0 0.0
2017-Aug-12 14:00N 52°23' E 004°55'0 0.0
2017-Aug-12 13:30N 52°23' E 004°55'0 0.0
2017-Aug-12 13:00N 52°23' E 004°55'0 0.0
2017-Aug-12 12:30N 52°23' E 004°55'0 0.0
2017-Aug-12 12:00N 52°23' E 004°55'0 0.0
2017-Aug-12 11:30N 52°23' E 004°55'0 0.0
2017-Aug-12 11:00N 52°23' E 004°55'0 0.0
2017-Aug-12 10:30N 52°23' E 004°55'0 0.0
2017-Aug-12 10:00N 52°23' E 004°55'0 0.0
2017-Aug-12 09:30N 52°23' E 004°55'0 0.0
2017-Aug-12 09:00N 52°23' E 004°55'0 0.0
2017-Aug-12 08:30N 52°23' E 004°55'0 0.0
2017-Aug-12 08:00N 52°23' E 004°55'0 0.0
2017-Aug-12 07:30N 52°23' E 004°55'0 0.0
2017-Aug-12 07:00N 52°23' E 004°55'0 0.0
2017-Aug-12 06:30N 52°23' E 004°55'0 0.0
2017-Aug-12 06:00N 52°23' E 004°55'0 0.0
2017-Aug-12 05:30N 52°23' E 004°55'0 1.0
2017-Aug-12 05:01N 52°23' E 004°56'1 2.6
2017-Aug-12 04:30N 52°23' E 004°54'3 6.3
2017-Aug-12 04:01N 52°25' E 004°49'4 7.8
2017-Aug-12 03:31N 52°26' E 004°43'4 7.8
2017-Aug-12 03:01N 52°28' E 004°37'1 1.8
2017-Aug-12 02:30N 52°28' E 004°36'4 7.6
2017-Aug-12 02:00N 52°28' E 004°30'611.3
2017-Aug-12 01:30N 52°29' E 004°21'917.3
2017-Aug-12 01:00N 52°32' E 004°07'1121.1
2017-Aug-12 00:30N 52°42' E 004°01'1121.3
2017-Aug-11 23:59N 52°52' E 003°59'1020.5
2017-Aug-11 23:29N 53°01' E 004°07'1021.0
2017-Aug-11 23:00N 53°08' E 004°19'1120.6
2017-Aug-11 22:28N 53°18' E 004°29'920.1
2017-Aug-11 22:00N 53°26' E 004°35'918.7
2017-Aug-11 21:31N 53°32' E 004°48'918.5
2017-Aug-11 21:00N 53°34' E 005°03'918.5
2017-Aug-11 20:30N 53°37' E 005°18'1418.9
2017-Aug-11 19:45N 53°42' E 005°41'6720.1
2017-Aug-11 16:23N 53°59' E 007°31'717.3
2017-Aug-11 16:00N 53°57' E 007°41'815.9
2017-Aug-11 15:30N 53°52' E 007°52'917.5
2017-Aug-11 15:00N 53°50' E 008°06'1019.3
2017-Aug-11 14:30N 53°43' E 008°18'1313.0
2017-Aug-11 13:30N 53°34' E 008°33'0 0.2
2017-Aug-11 13:00N 53°34' E 008°33'0 0.0
2017-Aug-11 12:29N 53°34' E 008°33'0 0.0
2017-Aug-11 12:00N 53°34' E 008°33'0 0.0
2017-Aug-11 11:30N 53°34' E 008°33'0 0.0
2017-Aug-11 10:59N 53°34' E 008°33'0 0.0
2017-Aug-11 10:29N 53°34' E 008°33'0 0.0
2017-Aug-11 09:59N 53°34' E 008°33'0 0.0
2017-Aug-11 09:29N 53°34' E 008°33'0 0.0
2017-Aug-11 08:59N 53°34' E 008°33'0 0.0
2017-Aug-11 08:29N 53°34' E 008°33'0 0.0
2017-Aug-11 07:59N 53°34' E 008°33'0 0.0
2017-Aug-11 07:29N 53°34' E 008°33'0 0.0
2017-Aug-11 07:00N 53°34' E 008°33'0 0.0
2017-Aug-11 06:29N 53°34' E 008°33'0 0.0
2017-Aug-11 06:00N 53°34' E 008°33'0 0.3
2017-Aug-11 05:30N 53°34' E 008°33'3 6.1
2017-Aug-11 05:01N 53°36' E 008°30'612.7
2017-Aug-11 04:30N 53°40' E 008°22'713.1
2017-Aug-11 04:00N 53°44' E 008°13'713.4
2017-Aug-11 03:30N 53°49' E 008°06'714.4
2017-Aug-11 03:00N 53°52' E 007°54'610.9
2017-Aug-11 02:30N 53°53' E 007°45'610.2
2017-Aug-11 01:58N 53°57' E 007°39'3210.7
2017-Aug-10 22:58N 54°27' E 007°18'1413.3
2017-Aug-10 21:56N 54°38' E 007°04'613.8
2017-Aug-10 21:30N 54°42' E 006°57'713.6
2017-Aug-10 21:00N 54°48' E 006°50'713.3
2017-Aug-10 20:30N 54°53' E 006°44'612.9
2017-Aug-10 20:00N 54°59' E 006°38'613.0
2017-Aug-10 19:30N 55°05' E 006°34'612.5
2017-Aug-10 19:00N 55°10' E 006°30'612.3
2017-Aug-10 18:30N 55°16' E 006°27'612.3
2017-Aug-10 18:00N 55°22' E 006°25'612.5
2017-Aug-10 17:29N 55°29' E 006°22'612.5
2017-Aug-10 16:59N 55°35' E 006°18'612.4
2017-Aug-10 16:30N 55°40' E 006°15'612.4
2017-Aug-10 16:00N 55°46' E 006°12'612.5
2017-Aug-10 15:29N 55°52' E 006°08'15513.9
2017-Aug-10 04:19N 58°19' E 004°32'513.5
2017-Aug-10 03:56N 58°24' E 004°28'613.8
2017-Aug-10 03:30N 58°29' E 004°24'714.2
2017-Aug-10 03:00N 58°36' E 004°19'714.9
2017-Aug-10 02:30N 58°43' E 004°14'11314.0
2017-Aug-09 18:29N 60°35' E 004°22'713.9
2017-Aug-09 18:00N 60°41' E 004°29'612.2
2017-Aug-09 17:30N 60°45' E 004°38'612.4
2017-Aug-09 17:00N 60°41' E 004°49'816.8
2017-Aug-09 16:30N 60°34' E 004°55'816.9
2017-Aug-09 16:00N 60°26' E 005°02'611.6
2017-Aug-09 15:30N 60°24' E 005°13'3 5.6
2017-Aug-09 14:59N 60°24' E 005°19'0 0.0
2017-Aug-09 14:29N 60°24' E 005°19'0 0.0
2017-Aug-09 13:59N 60°24' E 005°19'0 0.0
2017-Aug-09 13:29N 60°24' E 005°19'0 0.0
2017-Aug-09 12:59N 60°24' E 005°19'0 0.0
2017-Aug-09 12:29N 60°24' E 005°19'0 0.0
2017-Aug-09 11:59N 60°24' E 005°19'0 0.0
2017-Aug-09 11:29N 60°24' E 005°19'0 0.0
2017-Aug-09 10:59N 60°24' E 005°19'0 0.0
2017-Aug-09 10:29N 60°24' E 005°19'0 0.0
2017-Aug-09 09:59N 60°24' E 005°19'0 0.0
2017-Aug-09 09:29N 60°24' E 005°19'0 0.0
2017-Aug-09 08:59N 60°24' E 005°19'0 0.0
2017-Aug-09 08:29N 60°24' E 005°19'0 0.0
2017-Aug-09 07:59N 60°24' E 005°19'0 0.0
2017-Aug-09 07:29N 60°24' E 005°19'0 0.0
2017-Aug-09 06:59N 60°24' E 005°19'0 0.0
2017-Aug-09 06:29N 60°24' E 005°19'0 0.0
2017-Aug-09 05:59N 60°24' E 005°19'0 0.0
2017-Aug-09 05:29N 60°24' E 005°19'1 2.8
2017-Aug-09 05:00N 60°24' E 005°16'5 9.6
2017-Aug-09 04:30N 60°24' E 005°06'714.4
2017-Aug-09 04:00N 60°30' E 004°58'816.4
2017-Aug-09 03:30N 60°38' E 004°52'713.5
2017-Aug-09 03:00N 60°44' E 004°45'612.9
2017-Aug-09 02:30N 60°46' E 004°33'612.7
2017-Aug-09 02:00N 60°49' E 004°21'5511.4
2017-Aug-08 21:13N 61°44' E 004°23'313.4
2017-Aug-08 21:00N 61°46' E 004°26'713.2
2017-Aug-08 20:30N 61°52' E 004°34'612.5
2017-Aug-08 20:00N 61°57' E 004°42'610.9
2017-Aug-08 19:30N 61°59' E 004°53'815.1
2017-Aug-08 19:00N 61°55' E 005°07'714.4
2017-Aug-08 18:30N 61°55' E 005°22'816.1
2017-Aug-08 18:00N 61°54' E 005°39'6 0.4
2017-Aug-08 02:17N 61°51' E 005°49'414.0
2017-Aug-08 02:00N 61°53' E 005°42'714.2
2017-Aug-08 01:30N 61°55' E 005°28'713.1
2017-Aug-08 01:00N 61°54' E 005°14'713.1
2017-Aug-08 00:30N 61°56' E 005°01'714.2
2017-Aug-08 00:00N 62°00' E 004°49'612.6
2017-Aug-07 23:30N 62°06' E 004°42'612.7
2017-Aug-07 23:00N 62°12' E 004°46'714.4
2017-Aug-07 22:30N 62°18' E 004°51'714.4
2017-Aug-07 22:00N 62°23' E 005°03'714.1
2017-Aug-07 21:30N 62°28' E 005°15'713.2
2017-Aug-07 21:00N 62°31' E 005°28'714.1
2017-Aug-07 20:30N 62°30' E 005°43'714.4
2017-Aug-07 20:00N 62°27' E 005°57'612.2
2017-Aug-07 19:30N 62°30' E 006°09'613.0
2017-Aug-07 19:01N 62°37' E 006°08'5 9.4
2017-Aug-07 18:30N 62°37' E 006°18'816.9
2017-Aug-07 18:00N 62°39' E 006°36'917.3
2017-Aug-07 17:30N 62°41' E 006°54'917.1
2017-Aug-07 17:00N 62°39' E 007°12'1215.7
2017-Aug-07 16:13N 62°33' E 007°36'3 0.9
2017-Aug-07 13:06N 62°34' E 007°42'0 0.0
2017-Aug-07 13:00N 62°34' E 007°42'0 0.0
2017-Aug-07 12:21N 62°34' E 007°42'0 0.0
2017-Aug-07 10:00N 62°34' E 007°42'0 0.0
2017-Aug-07 08:24N 62°34' E 007°42'0 0.0
2017-Aug-07 07:30N 62°34' E 007°42'0 0.0
2017-Aug-07 07:00N 62°34' E 007°42'0 0.0
2017-Aug-07 06:24N 62°34' E 007°42'0 0.0
2017-Aug-07 05:54N 62°34' E 007°42'0 0.0
2017-Aug-07 05:29N 62°34' E 007°42'5 8.3
2017-Aug-07 04:56N 62°33' E 007°32'613.7
2017-Aug-07 04:30N 62°37' E 007°22'714.5
2017-Aug-07 04:00N 62°40' E 007°08'713.7
2017-Aug-07 03:30N 62°45' E 006°57'  

Dump ship's entire track history